Time,TemperatureF,DewpointF,PressureIn,WindDirection,WindDirectionDegrees,WindSpeedMPH,WindSpeedGustMPH,Humidity,HourlyPrecipIn,Conditions,Clouds,dailyrainin,SoftwareType,DateUTC
2013-08-20 00:01:00,60.3,55.7,30.10,SSE,158,0.0,0.0,85,0.00,RA,,0.00,WeatherDisplay:10.37,2013-08-20 04:01:00,
2013-08-20 00:03:00,60.4,55.9,30.10,SSE,158,0.0,0.0,85,0.00,RA,,0.00,WeatherDisplay:10.37,2013-08-20 04:03:00,
2013-08-20 00:05:00,60.4,55.9,30.10,SSE,158,0.0,0.0,85,0.00,RA,,0.00,WeatherDisplay:10.37,2013-08-20 04:05:00,
2013-08-20 00:10:00,60.3,55.7,30.10,SSE,158,0.0,0.0,85,0.00,CLR,,0.00,WeatherDisplay:10.37,2013-08-20 04:10:00,
2013-08-20 00:11:00,60.3,55.7,30.10,SSE,158,0.0,0.0,85,0.00,CLR,,0.00,WeatherDisplay:10.37,2013-08-20 04:11:00,
2013-08-20 00:15:00,60.3,55.7,30.10,SSE,158,0.0,0.0,85,0.00,CLR,,0.00,WeatherDisplay:10.37,2013-08-20 04:15:00,
2013-08-20 00:20:00,60.4,55.9,30.10,SSE,158,0.0,0.0,85,0.00,CLR,,0.00,WeatherDisplay:10.37,2013-08-20 04:20:00,
2013-08-20 00:25:00,60.1,55.6,30.10,SSE,158,0.0,0.0,85,0.00,CLR,,0.00,WeatherDisplay:10.37,2013-08-20 04:25:00,
2013-08-20 00:30:00,59.9,55.4,30.10,SSE,158,0.0,0.0,85,0.00,CLR,,0.00,WeatherDisplay:10.37,2013-08-20 04:30:00,
2013-08-20 00:35:00,59.9,55.4,30.10,SSE,158,0.0,0.0,85,0.00,CLR,,0.00,WeatherDisplay:10.37,2013-08-20 04:35:00,
2013-08-20 00:40:00,60.1,55.6,30.10,SSE,158,0.0,0.0,85,0.00,CLR,,0.00,WeatherDisplay:10.37,2013-08-20 04:40:00,
2013-08-20 00:45:00,60.1,55.6,30.10,SSE,158,0.0,0.0,85,0.00,CLR,,0.00,WeatherDisplay:10.37,2013-08-20 04:45:00,
2013-08-20 00:50:00,60.1,55.6,30.10,SSE,158,0.0,0.0,85,0.00,CLR,,0.00,WeatherDisplay:10.37,2013-08-20 04:50:00,
2013-08-20 00:55:00,59.9,55.4,30.10,SSE,158,0.0,0.0,85,0.00,CLR,,0.00,WeatherDisplay:10.37,2013-08-20 04:55:00,
2013-08-20 01:00:00,59.9,55.4,30.10,SSE,158,0.0,0.0,85,0.00,CLR,,0.00,WeatherDisplay:10.37,2013-08-20 05:00:00,
2013-08-20 01:05:00,59.9,55.4,30.10,SSE,158,0.0,0.0,85,0.00,CLR,,0.00,WeatherDisplay:10.37,2013-08-20 05:05:00,
2013-08-20 01:10:00,59.7,55.2,30.10,SSE,158,0.0,0.0,85,0.00,CLR,,0.00,WeatherDisplay:10.37,2013-08-20 05:10:00,
2013-08-20 01:15:00,59.4,54.8,30.11,SSE,158,0.0,0.0,85,0.00,CLR,,0.00,WeatherDisplay:10.37,2013-08-20 05:15:00,
2013-08-20 01:20:00,59.2,54.7,30.10,SSE,158,0.0,0.0,85,0.00,CLR,,0.00,WeatherDisplay:10.37,2013-08-20 05:20:00,
2013-08-20 01:25:00,59.2,54.7,30.10,SSE,158,0.0,0.0,85,0.00,CLR,,0.00,WeatherDisplay:10.37,2013-08-20 05:25:00,
2013-08-20 01:30:00,59.0,54.8,30.10,SSE,158,0.0,0.0,86,0.00,CLR,,0.00,WeatherDisplay:10.37,2013-08-20 05:30:00,
2013-08-20 01:35:00,59.0,54.8,30.10,SSE,158,0.0,0.0,86,0.00,CLR,,0.00,WeatherDisplay:10.37,2013-08-20 05:35:00,
2013-08-20 01:40:00,58.8,54.6,30.10,SSE,158,0.0,0.0,86,0.00,CLR,,0.00,WeatherDisplay:10.37,2013-08-20 05:40:00,
2013-08-20 01:45:00,58.8,54.6,30.10,SSE,158,0.0,0.0,86,0.00,CLR,,0.00,WeatherDisplay:10.37,2013-08-20 05:45:00,
2013-08-20 01:50:00,58.8,54.6,30.10,SSE,158,0.0,0.0,86,0.00,CLR,,0.00,WeatherDisplay:10.37,2013-08-20 05:50:00,
2013-08-20 01:55:00,59.0,54.8,30.10,SSE,158,0.0,0.0,86,0.00,CLR,,0.00,WeatherDisplay:10.37,2013-08-20 05:55:00,
2013-08-20 02:00:00,59.0,54.8,30.10,SSE,158,0.0,0.0,86,0.00,CLR,,0.00,WeatherDisplay:10.37,2013-08-20 06:00:00,
2013-08-20 02:05:00,58.8,54.6,30.10,SSE,158,0.0,0.0,86,0.00,CLR,,0.00,WeatherDisplay:10.37,2013-08-20 06:05:00,
2013-08-20 02:10:00,58.6,54.5,30.10,SSE,158,0.0,0.0,86,0.00,CLR,,0.00,WeatherDisplay:10.37,2013-08-20 06:10:00,
2013-08-20 02:15:00,58.5,54.3,30.10,SSE,158,0.0,0.0,86,0.00,CLR,,0.00,WeatherDisplay:10.37,2013-08-20 06:15:00,
2013-08-20 02:20:00,58.3,54.1,30.10,SSE,158,0.0,0.0,86,0.00,CLR,,0.00,WeatherDisplay:10.37,2013-08-20 06:20:00,
2013-08-20 02:25:00,58.5,54.3,30.10,SSE,158,0.0,0.0,86,0.00,CLR,,0.00,WeatherDisplay:10.37,2013-08-20 06:25:00,
2013-08-20 02:30:00,58.5,54.3,30.10,SSE,158,0.0,0.0,86,0.00,CLR,,0.00,WeatherDisplay:10.37,2013-08-20 06:30:00,
2013-08-20 02:35:00,58.5,54.3,30.10,SSE,158,0.0,0.0,86,0.00,CLR,,0.00,WeatherDisplay:10.37,2013-08-20 06:35:00,
2013-08-20 02:40:00,58.5,54.3,30.10,SSE,158,0.0,0.0,86,0.00,CLR,,0.00,WeatherDisplay:10.37,2013-08-20 06:40:00,
2013-08-20 02:45:00,58.5,54.3,30.10,SSE,158,0.0,0.0,86,0.00,CLR,,0.00,WeatherDisplay:10.37,2013-08-20 06:45:00,
2013-08-20 02:50:00,58.1,53.9,30.10,SSE,158,0.0,0.0,86,0.00,CLR,,0.00,WeatherDisplay:10.37,2013-08-20 06:50:00,
2013-08-20 02:55:00,57.9,53.8,30.09,SSE,158,0.0,0.0,86,0.00,CLR,,0.00,WeatherDisplay:10.37,2013-08-20 06:55:00,
2013-08-20 03:00:00,57.9,54.1,30.10,SSE,158,0.0,0.0,87,0.00,CLR,,0.00,WeatherDisplay:10.37,2013-08-20 07:00:00,
2013-08-20 03:05:00,57.9,54.1,30.09,SSE,158,0.0,0.0,87,0.00,CLR,,0.00,WeatherDisplay:10.37,2013-08-20 07:05:00,
2013-08-20 03:10:00,57.9,54.1,30.09,SSE,158,0.0,0.0,87,0.00,CLR,,0.00,WeatherDisplay:10.37,2013-08-20 07:10:00,
2013-08-20 03:15:00,57.9,54.1,30.10,SSE,158,0.0,0.0,87,0.00,CLR,,0.00,WeatherDisplay:10.37,2013-08-20 07:15:00,
2013-08-20 03:20:00,57.7,53.9,30.10,SSE,158,0.0,0.0,87,0.00,CLR,,0.00,WeatherDisplay:10.37,2013-08-20 07:20:00,
2013-08-20 03:25:00,57.6,53.7,30.10,SSE,158,0.0,0.0,87,0.00,CLR,,0.00,WeatherDisplay:10.37,2013-08-20 07:25:00,
2013-08-20 03:30:00,57.4,53.2,30.10,SSE,158,0.0,0.0,86,0.00,CLR,,0.00,WeatherDisplay:10.37,2013-08-20 07:30:00,
2013-08-20 03:35:00,57.2,53.0,30.10,SSE,158,0.0,0.0,86,0.00,CLR,,0.00,WeatherDisplay:10.37,2013-08-20 07:35:00,
2013-08-20 03:40:00,57.0,52.9,30.09,SSE,158,0.0,0.0,86,0.00,CLR,,0.00,WeatherDisplay:10.37,2013-08-20 07:40:00,
2013-08-20 03:45:00,57.0,52.9,30.10,SSE,158,0.0,0.0,86,0.00,CLR,,0.00,WeatherDisplay:10.37,2013-08-20 07:45:00,
2013-08-20 03:50:00,56.8,52.7,30.09,SSE,158,0.0,0.0,86,0.00,CLR,,0.00,WeatherDisplay:10.37,2013-08-20 07:50:00,
2013-08-20 03:55:00,56.7,52.5,30.10,SSE,158,0.0,0.0,86,0.00,CLR,,0.00,WeatherDisplay:10.37,2013-08-20 07:55:00,
2013-08-20 04:00:00,56.5,52.3,30.09,SSE,158,0.3,0.3,86,0.00,CLR,,0.00,WeatherDisplay:10.37,2013-08-20 08:00:00,
2013-08-20 04:05:00,55.8,51.6,30.10,SSE,158,0.0,0.0,86,0.00,CLR,,0.00,WeatherDisplay:10.37,2013-08-20 08:05:00,
2013-08-20 04:10:00,55.8,51.6,30.10,SSE,158,0.0,0.0,86,0.00,CLR,,0.00,WeatherDisplay:10.37,2013-08-20 08:10:00,
2013-08-20 04:15:00,55.9,51.8,30.10,SSE,158,0.0,0.0,86,0.00,CLR,,0.00,WeatherDisplay:10.37,2013-08-20 08:15:00,
2013-08-20 04:20:00,56.1,52.0,30.10,SSE,158,0.0,0.0,86,0.00,CLR,,0.00,WeatherDisplay:10.37,2013-08-20 08:20:00,
2013-08-20 04:25:00,56.1,52.0,30.10,SSE,158,0.0,0.0,86,0.00,CLR,,0.00,WeatherDisplay:10.37,2013-08-20 08:25:00,
2013-08-20 04:30:00,55.9,51.8,30.10,SSE,158,0.0,0.0,86,0.00,CLR,,0.00,WeatherDisplay:10.37,2013-08-20 08:30:00,
2013-08-20 04:35:00,55.8,51.6,30.10,SSE,158,0.0,0.0,86,0.00,CLR,,0.00,WeatherDisplay:10.37,2013-08-20 08:35:00,
2013-08-20 04:40:00,55.8,51.6,30.10,SSE,158,0.0,0.0,86,0.00,CLR,,0.00,WeatherDisplay:10.37,2013-08-20 08:40:00,
2013-08-20 04:45:00,55.4,51.3,30.10,SSE,158,0.0,0.0,86,0.00,CLR,,0.00,WeatherDisplay:10.37,2013-08-20 08:45:00,
2013-08-20 04:50:00,55.2,51.1,30.10,SSE,158,0.0,0.0,86,0.00,CLR,,0.00,WeatherDisplay:10.37,2013-08-20 08:50:00,
2013-08-20 04:55:00,55.2,51.1,30.10,SSE,158,0.0,0.0,86,0.00,CLR,,0.00,WeatherDisplay:10.37,2013-08-20 08:55:00,
2013-08-20 05:00:00,55.4,51.3,30.11,SSE,158,0.0,0.0,86,0.00,CLR,,0.00,WeatherDisplay:10.37,2013-08-20 09:00:00,
2013-08-20 05:05:00,55.2,51.1,30.10,SSE,158,0.0,0.0,86,0.00,CLR,,0.00,WeatherDisplay:10.37,2013-08-20 09:05:00,
2013-08-20 05:10:00,55.2,51.1,30.11,SSE,158,0.0,0.0,86,0.00,CLR,,0.00,WeatherDisplay:10.37,2013-08-20 09:10:00,
2013-08-20 05:15:00,55.2,51.1,30.11,SSE,158,0.0,0.0,86,0.00,CLR,,0.00,WeatherDisplay:10.37,2013-08-20 09:15:00,
2013-08-20 05:20:00,55.0,50.9,30.11,SSE,158,0.0,0.0,86,0.00,CLR,,0.00,WeatherDisplay:10.37,2013-08-20 09:20:00,
2013-08-20 05:25:00,55.0,50.9,30.11,SSE,158,0.0,0.0,86,0.00,CLR,,0.00,WeatherDisplay:10.37,2013-08-20 09:25:00,
2013-08-20 05:30:00,55.0,50.9,30.11,SSE,158,0.0,0.0,86,0.00,CLR,,0.00,WeatherDisplay:10.37,2013-08-20 09:30:00,
2013-08-20 05:35:00,54.9,50.8,30.12,SSE,158,0.0,0.0,86,0.00,CLR,,0.00,WeatherDisplay:10.37,2013-08-20 09:35:00,
2013-08-20 05:40:00,54.7,50.6,30.12,SSE,158,0.0,0.0,86,0.00,CLR,,0.00,WeatherDisplay:10.37,2013-08-20 09:40:00,
2013-08-20 05:45:00,54.7,50.6,30.12,SSE,158,0.0,0.0,86,0.00,CLR,,0.00,WeatherDisplay:10.37,2013-08-20 09:45:00,
2013-08-20 05:50:00,54.7,50.6,30.12,SSE,158,0.0,0.0,86,0.00,CLR,,0.00,WeatherDisplay:10.37,2013-08-20 09:50:00,
2013-08-20 05:55:00,54.9,50.8,30.12,SSE,158,0.0,0.0,86,0.00,CLR,,0.00,WeatherDisplay:10.37,2013-08-20 09:55:00,
2013-08-20 06:00:00,54.9,50.8,30.12,SSE,158,0.0,0.0,86,0.00,CLR,,0.00,WeatherDisplay:10.37,2013-08-20 10:00:00,
2013-08-20 06:05:00,55.0,50.9,30.13,SSE,158,0.0,0.0,86,0.00,CLR,,0.00,WeatherDisplay:10.37,2013-08-20 10:05:00,
2013-08-20 06:10:00,55.2,51.1,30.13,SSE,158,0.0,0.0,86,0.00,CLR,,0.00,WeatherDisplay:10.37,2013-08-20 10:10:00,
2013-08-20 06:15:00,55.4,51.3,30.13,SSE,158,0.0,0.0,86,0.00,CLR,,0.00,WeatherDisplay:10.37,2013-08-20 10:15:00,
2013-08-20 06:20:00,55.4,51.3,30.13,SSE,158,0.0,0.0,86,0.00,CLR,,0.00,WeatherDisplay:10.37,2013-08-20 10:20:00,
2013-08-20 06:25:00,54.9,50.8,30.14,SE,135,0.0,0.0,86,0.00,CLR,,0.00,WeatherDisplay:10.37,2013-08-20 10:25:00,
2013-08-20 06:30:00,54.7,50.6,30.14,SE,135,0.0,0.0,86,0.00,CLR,,0.00,WeatherDisplay:10.37,2013-08-20 10:30:00,
2013-08-20 06:35:00,54.7,50.6,30.14,SE,135,0.0,0.0,86,0.00,CLR,,0.00,WeatherDisplay:10.37,2013-08-20 10:35:00,
2013-08-20 06:40:00,54.7,50.6,30.15,SE,135,0.0,0.0,86,0.00,CLR,,0.00,WeatherDisplay:10.37,2013-08-20 10:40:00,
2013-08-20 06:45:00,54.9,50.8,30.15,SE,135,0.0,0.0,86,0.00,CLR,,0.00,WeatherDisplay:10.37,2013-08-20 10:45:00,
2013-08-20 06:50:00,54.9,50.8,30.15,SE,135,0.0,0.0,86,0.00,CLR,,0.00,WeatherDisplay:10.37,2013-08-20 10:50:00,
2013-08-20 06:55:00,54.9,50.8,30.15,SE,135,0.0,0.0,86,0.00,CLR,,0.00,WeatherDisplay:10.37,2013-08-20 10:55:00,
2013-08-20 07:00:00,55.0,50.9,30.15,SE,135,0.0,0.0,86,0.00,CLR,,0.00,WeatherDisplay:10.37,2013-08-20 11:00:00,
2013-08-20 07:05:00,55.2,51.1,30.15,SE,135,0.0,0.0,86,0.00,CLR,,0.00,WeatherDisplay:10.37,2013-08-20 11:05:00,
2013-08-20 07:10:00,55.4,51.3,30.15,SE,135,0.0,0.0,86,0.00,CLR,,0.00,WeatherDisplay:10.37,2013-08-20 11:10:00,
2013-08-20 07:15:00,55.6,51.5,30.15,SE,135,0.0,0.0,86,0.00,CLR,,0.00,WeatherDisplay:10.37,2013-08-20 11:15:00,
2013-08-20 07:20:00,55.6,51.5,30.15,SE,135,0.0,0.0,86,0.00,CLR,,0.00,WeatherDisplay:10.37,2013-08-20 11:20:00,
2013-08-20 07:25:00,55.4,51.3,30.15,SE,135,0.0,0.0,86,0.00,CLR,,0.00,WeatherDisplay:10.37,2013-08-20 11:25:00,
2013-08-20 07:30:00,55.4,51.3,30.15,SE,135,0.0,0.0,86,0.00,CLR,,0.00,WeatherDisplay:10.37,2013-08-20 11:30:00,
2013-08-20 07:35:00,55.4,51.6,30.15,SE,135,0.0,0.0,87,0.00,CLR,,0.00,WeatherDisplay:10.37,2013-08-20 11:35:00,
2013-08-20 07:40:00,55.6,51.8,30.15,SE,135,0.0,0.0,87,0.00,CLR,,0.00,WeatherDisplay:10.37,2013-08-20 11:40:00,
2013-08-20 07:45:00,55.9,52.1,30.15,SE,135,0.0,0.0,87,0.00,CLR,,0.00,WeatherDisplay:10.37,2013-08-20 11:45:00,
2013-08-20 07:50:00,56.1,52.3,30.16,SE,135,0.0,0.0,87,0.00,CLR,,0.00,WeatherDisplay:10.37,2013-08-20 11:50:00,
2013-08-20 07:55:00,56.3,52.5,30.16,SE,135,0.0,0.0,87,0.00,CLR,,0.00,WeatherDisplay:10.37,2013-08-20 11:55:00,
2013-08-20 08:00:00,56.7,52.8,30.16,SE,135,0.0,0.0,87,0.00,CLR,,0.00,WeatherDisplay:10.37,2013-08-20 12:00:00,
2013-08-20 08:05:00,57.2,53.4,30.16,SE,135,0.0,0.0,87,0.00,CLR,,0.00,WeatherDisplay:10.37,2013-08-20 12:05:00,
2013-08-20 08:10:00,57.2,53.4,30.16,SE,135,0.0,0.0,87,0.00,CLR,,0.00,WeatherDisplay:10.37,2013-08-20 12:10:00,
2013-08-20 08:15:00,57.4,53.9,30.16,SE,135,0.0,0.0,88,0.00,CLR,,0.00,WeatherDisplay:10.37,2013-08-20 12:15:00,
2013-08-20 08:20:00,57.6,54.0,30.16,SE,135,0.0,0.0,88,0.00,CLR,,0.00,WeatherDisplay:10.37,2013-08-20 12:20:00,
2013-08-20 08:25:00,57.9,54.4,30.16,SE,135,0.0,0.0,88,0.00,CLR,,0.00,WeatherDisplay:10.37,2013-08-20 12:25:00,
2013-08-20 08:30:00,57.9,54.4,30.16,SE,135,0.0,0.0,88,0.00,CLR,,0.00,WeatherDisplay:10.37,2013-08-20 12:30:00,
2013-08-20 08:35:00,58.3,54.7,30.16,SE,135,0.0,0.0,88,0.00,CLR,,0.00,WeatherDisplay:10.37,2013-08-20 12:35:00,
2013-08-20 08:40:00,58.5,54.9,30.16,SE,135,0.0,0.0,88,0.00,CLR,,0.00,WeatherDisplay:10.37,2013-08-20 12:40:00,
2013-08-20 08:45:00,58.8,55.3,30.16,SE,135,0.0,0.0,88,0.00,CLR,,0.00,WeatherDisplay:10.37,2013-08-20 12:45:00,
2013-08-20 08:50:00,59.4,55.8,30.17,SE,135,0.0,0.0,88,0.00,CLR,,0.00,WeatherDisplay:10.37,2013-08-20 12:50:00,
2013-08-20 08:55:00,59.5,56.0,30.17,SE,135,0.0,0.0,88,0.00,CLR,,0.00,WeatherDisplay:10.37,2013-08-20 12:55:00,
2013-08-20 09:00:00,59.7,56.2,30.17,SE,135,0.3,0.3,88,0.00,CLR,,0.00,WeatherDisplay:10.37,2013-08-20 13:00:00,
2013-08-20 09:05:00,60.1,56.5,30.17,SE,135,0.0,0.0,88,0.00,CLR,,0.00,WeatherDisplay:10.37,2013-08-20 13:05:00,
2013-08-20 09:10:00,60.4,56.9,30.17,SE,135,0.0,0.0,88,0.00,CLR,,0.00,WeatherDisplay:10.37,2013-08-20 13:10:00,
2013-08-20 09:15:00,60.8,57.2,30.17,SE,135,0.0,0.0,88,0.00,CLR,,0.00,WeatherDisplay:10.37,2013-08-20 13:15:00,
2013-08-20 09:20:00,61.0,57.4,30.17,South,180,0.0,0.0,88,0.00,CLR,,0.00,WeatherDisplay:10.37,2013-08-20 13:20:00,
2013-08-20 09:25:00,61.3,57.8,30.17,South,180,0.0,0.0,88,0.00,CLR,,0.00,WeatherDisplay:10.37,2013-08-20 13:25:00,
2013-08-20 09:30:00,61.9,58.3,30.17,SSW,202,0.0,0.0,88,0.00,CLR,,0.00,WeatherDisplay:10.37,2013-08-20 13:30:00,
2013-08-20 09:35:00,62.2,58.3,30.17,SSW,202,0.0,0.0,87,0.00,CLR,,0.00,WeatherDisplay:10.37,2013-08-20 13:35:00,
2013-08-20 09:40:00,62.6,58.7,30.17,SSW,202,0.0,0.0,87,0.00,CLR,,0.00,WeatherDisplay:10.37,2013-08-20 13:40:00,
2013-08-20 09:45:00,63.0,58.7,30.18,West,270,0.0,0.0,86,0.00,CLR,,0.00,WeatherDisplay:10.37,2013-08-20 13:45:00,
2013-08-20 09:50:00,63.3,58.7,30.18,WSW,248,0.0,0.0,85,0.00,CLR,,0.00,WeatherDisplay:10.37,2013-08-20 13:50:00,
2013-08-20 09:55:00,63.7,58.8,30.18,WSW,248,0.0,0.0,84,0.00,CLR,,0.00,WeatherDisplay:10.37,2013-08-20 13:55:00,
2013-08-20 10:00:00,64.0,59.1,30.18,West,270,0.0,0.0,84,0.00,CLR,,0.00,WeatherDisplay:10.37,2013-08-20 14:00:00,
2013-08-20 10:05:00,64.4,59.1,30.18,West,270,2.4,3.5,83,0.00,CLR,,0.00,WeatherDisplay:10.37,2013-08-20 14:05:00,
2013-08-20 10:10:00,64.6,59.3,30.18,West,270,1.5,2.3,83,0.00,CLR,,0.00,WeatherDisplay:10.37,2013-08-20 14:10:00,
2013-08-20 10:15:00,64.8,59.8,30.18,WNW,292,2.4,2.4,84,0.00,CLR,,0.00,WeatherDisplay:10.37,2013-08-20 14:15:00,
2013-08-20 10:20:00,65.5,60.2,30.18,NNW,338,0.6,1.1,83,0.00,CLR,,0.00,WeatherDisplay:10.37,2013-08-20 14:20:00,
2013-08-20 10:25:00,65.7,60.4,30.18,NNW,338,0.0,0.0,83,0.00,CLR,,0.00,WeatherDisplay:10.37,2013-08-20 14:25:00,
2013-08-20 10:30:00,65.8,60.2,30.18,WNW,292,1.5,1.5,82,0.00,CLR,,0.00,WeatherDisplay:10.37,2013-08-20 14:30:00,
2013-08-20 10:35:00,66.2,60.2,30.18,West,270,1.2,1.2,81,0.00,CLR,,0.00,WeatherDisplay:10.37,2013-08-20 14:35:00,
2013-08-20 10:40:00,66.9,60.5,30.19,West,270,1.8,2.3,80,0.00,CLR,,0.00,WeatherDisplay:10.37,2013-08-20 14:40:00,
2013-08-20 10:45:00,67.3,60.9,30.18,West,270,0.6,2.3,80,0.00,CLR,,0.00,WeatherDisplay:10.37,2013-08-20 14:45:00,
2013-08-20 10:50:00,67.5,60.7,30.18,WSW,248,2.4,2.4,79,0.00,CLR,,0.00,WeatherDisplay:10.37,2013-08-20 14:50:00,
2013-08-20 10:55:00,67.8,60.3,30.18,WNW,292,1.5,3.5,77,0.00,CLR,,0.00,WeatherDisplay:10.37,2013-08-20 14:55:00,
2013-08-20 11:00:00,68.0,60.2,30.18,West,270,2.4,2.4,76,0.00,CLR,,0.00,WeatherDisplay:10.37,2013-08-20 15:00:00,
2013-08-20 11:05:00,68.4,60.1,30.18,NNW,338,0.3,0.0,75,0.00,CLR,,0.00,WeatherDisplay:10.37,2013-08-20 15:05:00,
2013-08-20 11:10:00,68.7,60.1,30.18,NW,315,0.6,1.1,74,0.00,CLR,,0.00,WeatherDisplay:10.37,2013-08-20 15:10:00,
2013-08-20 11:15:00,69.3,59.8,30.18,North,0,2.8,4.6,72,0.00,CLR,,0.00,WeatherDisplay:10.37,2013-08-20 15:15:00,
2013-08-20 11:20:00,69.4,59.6,30.18,NNW,338,4.3,4.6,71,0.00,CLR,,0.00,WeatherDisplay:10.37,2013-08-20 15:20:00,
2013-08-20 11:25:00,69.6,59.4,30.18,WNW,292,3.1,3.5,70,0.00,CLR,,0.00,WeatherDisplay:10.37,2013-08-20 15:25:00,
2013-08-20 11:30:00,69.8,59.6,30.18,NW,315,0.6,1.1,70,0.00,CLR,,0.00,WeatherDisplay:10.37,2013-08-20 15:30:00,
2013-08-20 11:35:00,69.8,60.0,30.18,NNW,338,0.6,1.1,71,0.00,CLR,,0.00,WeatherDisplay:10.37,2013-08-20 15:35:00,
2013-08-20 11:40:00,69.8,60.0,30.18,WSW,248,2.4,2.4,71,0.00,CLR,,0.00,WeatherDisplay:10.37,2013-08-20 15:40:00,
2013-08-20 11:45:00,70.0,59.7,30.18,NNW,338,1.2,3.5,70,0.00,CLR,,0.00,WeatherDisplay:10.37,2013-08-20 15:45:00,
2013-08-20 11:50:00,70.0,59.7,30.18,NNW,338,1.2,1.2,70,0.00,CLR,,0.00,WeatherDisplay:10.37,2013-08-20 15:50:00,
2013-08-20 11:55:00,70.2,59.5,30.18,NNW,338,1.2,1.2,69,0.00,CLR,,0.00,WeatherDisplay:10.37,2013-08-20 15:55:00,
2013-08-20 12:00:00,70.7,60.4,30.18,WSW,248,0.3,0.3,70,0.00,CLR,,0.00,WeatherDisplay:10.37,2013-08-20 16:00:00,
2013-08-20 12:05:00,71.2,60.5,30.18,North,0,0.9,1.1,69,0.00,CLR,,0.00,WeatherDisplay:10.37,2013-08-20 16:05:00,
2013-08-20 12:10:00,71.4,59.9,30.18,West,270,0.0,3.5,67,0.00,CLR,,0.00,WeatherDisplay:10.37,2013-08-20 16:10:00,
2013-08-20 12:15:00,71.4,59.5,30.18,West,270,2.4,2.4,66,0.00,CLR,,0.00,WeatherDisplay:10.37,2013-08-20 16:15:00,
2013-08-20 12:20:00,71.6,60.5,30.18,North,0,2.8,2.8,68,0.00,CLR,,0.00,WeatherDisplay:10.37,2013-08-20 16:20:00,
2013-08-20 12:25:00,71.8,59.8,30.18,NNW,338,1.5,1.5,66,0.00,CLR,,0.00,WeatherDisplay:10.37,2013-08-20 16:25:00,
2013-08-20 12:31:00,72.1,60.6,30.18,NW,315,2.5,2.5,67,0.00,CLR,,0.00,WeatherDisplay:10.37,2013-08-20 16:31:00,
2013-08-20 12:36:00,72.0,60.0,30.18,NW,315,4.3,6.9,66,0.00,CLR,,0.00,WeatherDisplay:10.37,2013-08-20 16:36:00,
2013-08-20 12:41:00,72.3,60.3,30.18,WSW,248,2.4,4.6,66,0.00,CLR,,0.00,WeatherDisplay:10.37,2013-08-20 16:41:00,
2013-08-20 12:46:00,72.5,60.1,30.18,NW,315,2.4,2.4,65,0.00,CLR,,0.00,WeatherDisplay:10.37,2013-08-20 16:46:00,
2013-08-20 12:51:00,72.7,60.2,30.18,NW,315,1.2,1.2,65,0.00,CLR,,0.00,WeatherDisplay:10.37,2013-08-20 16:51:00,
2013-08-20 12:56:00,73.0,60.1,30.18,WSW,248,3.1,3.5,64,0.00,CLR,,0.00,WeatherDisplay:10.37,2013-08-20 16:56:00,
2013-08-20 13:01:00,73.2,60.3,30.18,NW,315,0.6,1.1,64,0.00,CLR,,0.00,WeatherDisplay:10.37,2013-08-20 17:01:00,
2013-08-20 13:06:00,73.6,60.6,30.18,West,270,4.6,4.6,64,0.00,CLR,,0.00,WeatherDisplay:10.37,2013-08-20 17:06:00,
2013-08-20 13:11:00,73.8,60.8,30.18,WNW,292,4.9,4.9,64,0.00,CLR,,0.00,WeatherDisplay:10.37,2013-08-20 17:11:00,
2013-08-20 13:16:00,74.1,61.2,30.18,ESE,112,1.8,2.3,64,0.00,CLR,,0.00,WeatherDisplay:10.37,2013-08-20 17:16:00,
2013-08-20 13:21:00,74.3,60.4,30.18,NW,315,2.1,2.3,62,0.00,CLR,,0.00,WeatherDisplay:10.37,2013-08-20 17:21:00,
2013-08-20 13:26:00,74.3,60.9,30.18,WNW,292,3.1,3.5,63,0.00,CLR,,0.00,WeatherDisplay:10.37,2013-08-20 17:26:00,
2013-08-20 13:31:00,74.8,60.5,30.18,WNW,292,4.0,4.6,61,0.00,CLR,,0.00,WeatherDisplay:10.37,2013-08-20 17:31:00,
2013-08-20 13:36:00,74.8,60.5,30.18,NNW,338,4.6,4.6,61,0.00,CLR,,0.00,WeatherDisplay:10.37,2013-08-20 17:36:00,
2013-08-20 13:41:00,75.2,60.4,30.17,WNW,292,3.4,4.6,60,0.00,CLR,,0.00,WeatherDisplay:10.37,2013-08-20 17:41:00,
2013-08-20 13:46:00,75.6,60.2,30.18,NNW,338,1.5,3.5,59,0.00,CLR,,0.00,WeatherDisplay:10.37,2013-08-20 17:46:00,
2013-08-20 13:51:00,75.4,60.1,30.18,West,270,1.8,2.3,59,0.00,CLR,,0.00,WeatherDisplay:10.37,2013-08-20 17:51:00,
2013-08-20 13:56:00,75.6,59.7,30.18,WNW,292,3.7,3.7,58,0.00,CLR,,0.00,WeatherDisplay:10.37,2013-08-20 17:56:00,
2013-08-20 14:01:00,75.9,59.6,30.17,NW,315,2.1,2.3,57,0.00,CLR,,0.00,WeatherDisplay:10.37,2013-08-20 18:01:00,
2013-08-20 14:06:00,76.5,61.5,30.17,SE,135,2.4,2.4,60,0.00,CLR,,0.00,WeatherDisplay:10.37,2013-08-20 18:06:00,
2013-08-20 14:11:00,76.8,62.3,30.17,SSW,202,3.4,3.4,61,0.00,CLR,,0.00,WeatherDisplay:10.37,2013-08-20 18:11:00,
2013-08-20 14:16:00,77.4,62.4,30.17,WSW,248,1.2,3.5,60,0.00,CLR,,0.00,WeatherDisplay:10.37,2013-08-20 18:16:00,
2013-08-20 14:21:00,77.2,61.3,30.17,WNW,292,2.4,2.4,58,0.00,CLR,,0.00,WeatherDisplay:10.37,2013-08-20 18:21:00,
2013-08-20 14:26:00,76.8,60.9,30.17,NW,315,1.2,4.6,58,0.00,CLR,,0.00,WeatherDisplay:10.37,2013-08-20 18:26:00,
2013-08-20 14:31:00,76.6,59.3,30.16,NW,315,2.4,3.5,55,0.00,CLR,,0.00,WeatherDisplay:10.37,2013-08-20 18:31:00,
2013-08-20 14:36:00,75.9,58.6,30.16,West,270,2.8,3.5,55,0.00,CLR,,0.00,WeatherDisplay:10.37,2013-08-20 18:36:00,
2013-08-20 14:41:00,76.1,59.8,30.16,WSW,248,1.5,2.3,57,0.00,CLR,,0.00,WeatherDisplay:10.37,2013-08-20 18:41:00,
2013-08-20 14:46:00,76.3,58.4,30.16,WSW,248,2.5,2.5,54,0.00,CLR,,0.00,WeatherDisplay:10.37,2013-08-20 18:46:00,
2013-08-20 14:51:00,76.5,60.1,30.16,SSE,158,1.5,1.5,57,0.00,CLR,,0.00,WeatherDisplay:10.37,2013-08-20 18:51:00,
2013-08-20 14:56:00,76.6,60.3,30.16,WNW,292,0.6,1.1,57,0.00,CLR,,0.00,WeatherDisplay:10.37,2013-08-20 18:56:00,
2013-08-20 15:01:00,76.3,59.4,30.15,NNW,338,1.2,1.2,56,0.00,CLR,,0.00,WeatherDisplay:10.37,2013-08-20 19:01:00,
2013-08-20 15:06:00,76.3,58.4,30.15,WSW,248,4.3,4.6,54,0.00,CLR,,0.00,WeatherDisplay:10.37,2013-08-20 19:06:00,
2013-08-20 15:11:00,76.3,58.4,30.15,WSW,248,3.4,3.5,54,0.00,CLR,,0.00,WeatherDisplay:10.37,2013-08-20 19:11:00,
2013-08-20 15:16:00,76.3,58.4,30.15,NW,315,0.9,1.1,54,0.00,CLR,,0.00,WeatherDisplay:10.37,2013-08-20 19:16:00,
2013-08-20 15:21:00,76.5,59.1,30.15,West,270,4.3,4.6,55,0.00,CLR,,0.00,WeatherDisplay:10.37,2013-08-20 19:21:00,
2013-08-20 15:26:00,76.6,59.3,30.15,WNW,292,0.9,2.3,55,0.00,CLR,,0.00,WeatherDisplay:10.37,2013-08-20 19:26:00,
2013-08-20 15:31:00,76.6,58.2,30.15,WSW,248,3.4,3.5,53,0.00,CLR,,0.00,WeatherDisplay:10.37,2013-08-20 19:31:00,
2013-08-20 15:36:00,76.6,58.7,30.14,NW,315,3.4,5.8,54,0.00,CLR,,0.00,WeatherDisplay:10.37,2013-08-20 19:36:00,
2013-08-20 15:41:00,76.8,58.9,30.14,NNE,22,0.9,2.3,54,0.00,CLR,,0.00,WeatherDisplay:10.37,2013-08-20 19:41:00,
2013-08-20 15:46:00,77.0,59.6,30.14,NW,315,1.5,1.5,55,0.00,CLR,,0.00,WeatherDisplay:10.37,2013-08-20 19:46:00,
2013-08-20 15:51:00,77.2,60.3,30.14,NW,315,1.5,1.5,56,0.00,CLR,,0.00,WeatherDisplay:10.37,2013-08-20 19:51:00,
2013-08-20 15:56:00,77.7,60.8,30.14,West,270,1.8,2.3,56,0.00,CLR,,0.00,WeatherDisplay:10.37,2013-08-20 19:56:00,
2013-08-20 16:01:00,77.9,60.9,30.14,WSW,248,4.6,4.6,56,0.00,CLR,,0.00,WeatherDisplay:10.37,2013-08-20 20:01:00,
2013-08-20 16:06:00,78.1,60.6,30.14,SW,225,1.5,1.5,55,0.00,CLR,,0.00,WeatherDisplay:10.37,2013-08-20 20:06:00,
2013-08-20 16:11:00,78.1,61.1,30.14,WNW,292,0.0,1.1,56,0.00,CLR,,0.00,WeatherDisplay:10.37,2013-08-20 20:11:00,
2013-08-20 16:16:00,78.3,61.3,30.14,NNW,338,2.4,2.4,56,0.00,CLR,,0.00,WeatherDisplay:10.37,2013-08-20 20:16:00,
2013-08-20 16:21:00,78.3,61.8,30.14,WSW,248,1.8,2.3,57,0.00,CLR,,0.00,WeatherDisplay:10.37,2013-08-20 20:21:00,
2013-08-20 16:26:00,78.3,61.8,30.14,West,270,0.6,1.1,57,0.00,CLR,,0.00,WeatherDisplay:10.37,2013-08-20 20:26:00,
2013-08-20 16:31:00,78.4,61.9,30.14,NNW,338,0.9,1.1,57,0.00,CLR,,0.00,WeatherDisplay:10.37,2013-08-20 20:31:00,
2013-08-20 16:36:00,78.8,61.3,30.14,WNW,292,6.1,6.1,55,0.00,CLR,,0.00,WeatherDisplay:10.37,2013-08-20 20:36:00,
2013-08-20 16:41:00,78.4,60.9,30.13,NW,315,3.1,3.1,55,0.00,CLR,,0.00,WeatherDisplay:10.37,2013-08-20 20:41:00,
2013-08-20 16:46:00,78.3,61.3,30.13,WNW,292,0.6,3.5,56,0.00,CLR,,0.00,WeatherDisplay:10.37,2013-08-20 20:46:00,
2013-08-20 16:51:00,78.6,61.1,30.13,NW,315,3.1,3.5,55,0.00,CLR,,0.00,WeatherDisplay:10.37,2013-08-20 20:51:00,
2013-08-20 16:56:00,78.8,61.3,30.14,West,270,1.5,1.5,55,0.00,CLR,,0.00,WeatherDisplay:10.37,2013-08-20 20:56:00,
2013-08-20 17:01:00,79.2,62.1,30.14,NW,315,0.9,1.1,56,0.00,CLR,,0.00,WeatherDisplay:10.37,2013-08-20 21:01:00,
2013-08-20 17:06:00,79.5,61.9,30.14,West,270,2.4,2.4,55,0.00,CLR,,0.00,WeatherDisplay:10.37,2013-08-20 21:06:00,
2013-08-20 17:11:00,79.5,61.4,30.14,WSW,248,3.1,3.5,54,0.00,CLR,,0.00,WeatherDisplay:10.37,2013-08-20 21:11:00,
2013-08-20 17:16:00,79.5,61.9,30.13,SW,225,1.5,1.5,55,0.00,CLR,,0.00,WeatherDisplay:10.37,2013-08-20 21:16:00,
2013-08-20 17:21:00,79.5,62.4,30.14,WSW,248,0.6,1.1,56,0.00,CLR,,0.00,WeatherDisplay:10.37,2013-08-20 21:21:00,
2013-08-20 17:26:00,79.5,62.4,30.13,NW,315,2.4,2.4,56,0.00,CLR,,0.00,WeatherDisplay:10.37,2013-08-20 21:26:00,
2013-08-20 17:31:00,78.6,62.1,30.13,West,270,1.2,0.0,57,0.00,CLR,,0.00,WeatherDisplay:10.37,2013-08-20 21:31:00,
2013-08-20 17:36:00,78.6,62.1,30.13,West,270,0.0,1.1,57,0.00,CLR,,0.00,WeatherDisplay:10.37,2013-08-20 21:36:00,
2013-08-20 17:41:00,78.6,62.6,30.13,West,270,0.0,0.0,58,0.00,CLR,,0.00,WeatherDisplay:10.37,2013-08-20 21:41:00,
2013-08-20 17:46:00,78.6,62.6,30.13,NW,315,1.5,1.5,58,0.00,CLR,,0.00,WeatherDisplay:10.37,2013-08-20 21:46:00,
2013-08-20 17:51:00,78.4,61.9,30.13,WSW,248,3.4,3.5,57,0.00,CLR,,0.00,WeatherDisplay:10.37,2013-08-20 21:51:00,
2013-08-20 17:56:00,78.6,62.1,30.13,West,270,0.0,0.0,57,0.00,CLR,,0.00,WeatherDisplay:10.37,2013-08-20 21:56:00,
2013-08-20 18:01:00,78.6,61.6,30.13,NW,315,0.3,1.1,56,0.00,CLR,,0.00,WeatherDisplay:10.37,2013-08-20 22:01:00,
2013-08-20 18:06:00,78.3,61.8,30.13,WNW,292,0.9,2.3,57,0.00,CLR,,0.00,WeatherDisplay:10.37,2013-08-20 22:06:00,
2013-08-20 18:11:00,78.1,60.6,30.13,West,270,3.4,3.5,55,0.00,CLR,,0.00,WeatherDisplay:10.37,2013-08-20 22:11:00,
2013-08-20 18:16:00,78.3,61.3,30.13,WSW,248,1.8,2.3,56,0.00,CLR,,0.00,WeatherDisplay:10.37,2013-08-20 22:16:00,
2013-08-20 18:21:00,78.3,61.8,30.13,WSW,248,1.5,1.5,57,0.00,CLR,,0.00,WeatherDisplay:10.37,2013-08-20 22:21:00,
2013-08-20 18:26:00,78.1,61.1,30.13,NW,315,2.4,2.4,56,0.00,CLR,,0.00,WeatherDisplay:10.37,2013-08-20 22:26:00,
2013-08-20 18:31:00,77.9,61.4,30.12,WNW,292,2.1,2.3,57,0.00,CLR,,0.00,WeatherDisplay:10.37,2013-08-20 22:31:00,
2013-08-20 18:36:00,77.4,60.9,30.13,NW,315,0.6,1.1,57,0.00,CLR,,0.00,WeatherDisplay:10.37,2013-08-20 22:36:00,
2013-08-20 18:41:00,76.5,61.1,30.12,NW,315,0.0,1.1,59,0.00,CLR,,0.00,WeatherDisplay:10.37,2013-08-20 22:41:00,
2013-08-20 18:46:00,76.3,60.9,30.13,NW,315,0.3,1.1,59,0.00,CLR,,0.00,WeatherDisplay:10.37,2013-08-20 22:46:00,
2013-08-20 18:51:00,76.1,60.7,30.13,NW,315,1.2,1.2,59,0.00,CLR,,0.00,WeatherDisplay:10.37,2013-08-20 22:51:00,
2013-08-20 18:56:00,75.9,61.0,30.13,NW,315,0.0,0.0,60,0.00,CLR,,0.00,WeatherDisplay:10.37,2013-08-20 22:56:00,
2013-08-20 19:01:00,75.7,61.3,30.13,NW,315,0.3,0.3,61,0.00,CLR,,0.00,WeatherDisplay:10.37,2013-08-20 23:01:00,
2013-08-20 19:06:00,75.2,61.3,30.13,NW,315,0.0,0.0,62,0.00,CLR,,0.00,WeatherDisplay:10.37,2013-08-20 23:06:00,
2013-08-20 19:11:00,75.0,61.6,30.13,NW,315,0.0,0.0,63,0.00,CLR,,0.00,WeatherDisplay:10.37,2013-08-20 23:11:00,
2013-08-20 19:16:00,74.5,61.5,30.13,NW,315,0.0,0.0,64,0.00,CLR,,0.00,WeatherDisplay:10.37,2013-08-20 23:16:00,
2013-08-20 19:21:00,73.9,61.4,30.13,NW,315,0.0,0.0,65,0.00,CLR,,0.00,WeatherDisplay:10.37,2013-08-20 23:21:00,
2013-08-20 19:26:00,73.0,61.0,30.13,NW,315,0.0,0.0,66,0.00,CLR,,0.00,WeatherDisplay:10.37,2013-08-20 23:26:00,
2013-08-20 19:31:00,72.3,60.7,30.13,NW,315,0.0,1.1,67,0.00,CLR,,0.00,WeatherDisplay:10.37,2013-08-20 23:31:00,
2013-08-20 19:36:00,71.8,60.6,30.13,NW,315,0.0,0.0,68,0.00,CLR,,0.00,WeatherDisplay:10.37,2013-08-20 23:36:00,
2013-08-20 19:41:00,71.2,60.1,30.13,NW,315,0.0,0.0,68,0.00,CLR,,0.00,WeatherDisplay:10.37,2013-08-20 23:41:00,
2013-08-20 19:46:00,70.9,60.2,30.13,NW,315,0.0,0.0,69,0.00,CLR,,0.00,WeatherDisplay:10.37,2013-08-20 23:46:00,
2013-08-20 19:51:00,70.3,59.7,30.13,NW,315,0.0,0.0,69,0.00,CLR,,0.00,WeatherDisplay:10.37,2013-08-20 23:51:00,
2013-08-20 19:56:00,70.0,59.7,30.13,NE,45,0.0,0.0,70,0.00,CLR,,0.00,WeatherDisplay:10.37,2013-08-20 23:56:00,
2013-08-20 20:01:00,69.6,59.4,30.14,NE,45,0.0,0.0,70,0.00,CLR,,0.00,WeatherDisplay:10.37,2013-08-21 00:01:00,
2013-08-20 20:06:00,69.1,59.3,30.14,NE,45,0.0,0.0,71,0.00,CLR,,0.00,WeatherDisplay:10.37,2013-08-21 00:06:00,
2013-08-20 20:11:00,68.9,59.5,30.14,ENE,68,0.6,1.1,72,0.00,CLR,,0.00,WeatherDisplay:10.37,2013-08-21 00:11:00,
2013-08-20 20:16:00,68.5,59.5,30.14,East,90,0.0,0.0,73,0.00,CLR,,0.00,WeatherDisplay:10.37,2013-08-21 00:16:00,
2013-08-20 20:21:00,68.0,59.4,30.14,SE,135,1.5,1.5,74,0.00,CLR,,0.00,WeatherDisplay:10.37,2013-08-21 00:21:00,
2013-08-20 20:26:00,67.6,59.1,30.15,SE,135,0.6,1.1,74,0.00,CLR,,0.00,WeatherDisplay:10.37,2013-08-21 00:26:00,
2013-08-20 20:31:00,67.3,59.1,30.15,SE,135,0.6,0.6,75,0.00,CLR,,0.00,WeatherDisplay:10.37,2013-08-21 00:31:00,
2013-08-20 20:36:00,67.1,58.9,30.15,SE,135,0.9,1.1,75,0.00,CLR,,0.00,WeatherDisplay:10.37,2013-08-21 00:36:00,
2013-08-20 20:41:00,66.7,58.9,30.15,SE,135,0.6,1.1,76,0.00,CLR,,0.00,WeatherDisplay:10.37,2013-08-21 00:41:00,
2013-08-20 20:46:00,66.4,58.6,30.15,SE,135,0.6,1.1,76,0.00,CLR,,0.00,WeatherDisplay:10.37,2013-08-21 00:46:00,
2013-08-20 20:51:00,66.2,58.4,30.15,SE,135,0.3,0.3,76,0.00,CLR,,0.00,WeatherDisplay:10.37,2013-08-21 00:51:00,
2013-08-20 20:56:00,66.0,58.2,30.16,SE,135,0.0,0.0,76,0.00,CLR,,0.00,WeatherDisplay:10.37,2013-08-21 00:56:00,
2013-08-20 21:01:00,65.8,58.4,30.16,SE,135,0.0,0.0,77,0.00,CLR,,0.00,WeatherDisplay:10.37,2013-08-21 01:01:00,
2013-08-20 21:06:00,65.7,58.3,30.16,SE,135,0.0,0.0,77,0.00,CLR,,0.00,WeatherDisplay:10.37,2013-08-21 01:06:00,
2013-08-20 21:11:00,65.3,57.9,30.16,SE,135,0.0,0.0,77,0.00,CLR,,0.00,WeatherDisplay:10.37,2013-08-21 01:11:00,
2013-08-20 21:16:00,65.1,57.7,30.16,SE,135,0.0,0.0,77,0.00,CLR,,0.00,WeatherDisplay:10.37,2013-08-21 01:16:00,
2013-08-20 21:21:00,64.8,57.4,30.16,SE,135,0.6,1.1,77,0.00,CLR,,0.00,WeatherDisplay:10.37,2013-08-21 01:21:00,
2013-08-20 21:26:00,64.0,56.7,30.16,SE,135,1.5,1.5,77,0.00,CLR,,0.00,WeatherDisplay:10.37,2013-08-21 01:26:00,
2013-08-20 21:28:00,64.0,56.7,30.16,SE,135,1.5,1.5,77,0.00,CLR,,0.00,WeatherDisplay:10.37,2013-08-21 01:28:00,
2013-08-20 21:33:00,63.7,56.7,30.17,SE,135,1.5,1.5,78,0.00,CLR,,0.00,WeatherDisplay:10.37,2013-08-21 01:33:00,
2013-08-20 21:38:00,63.1,55.8,30.17,SE,135,2.4,2.4,77,0.00,CLR,,0.00,WeatherDisplay:10.37,2013-08-21 01:38:00,
2013-08-20 21:43:00,62.8,55.5,30.17,SE,135,1.5,1.5,77,0.00,CLR,,0.00,WeatherDisplay:10.37,2013-08-21 01:43:00,
2013-08-20 21:48:00,62.4,55.5,30.17,SE,135,1.2,1.2,78,0.00,CLR,,0.00,WeatherDisplay:10.37,2013-08-21 01:48:00,
2013-08-20 21:53:00,62.2,55.3,30.17,SE,135,1.5,1.5,78,0.00,CLR,,0.00,WeatherDisplay:10.37,2013-08-21 01:53:00,
2013-08-20 21:58:00,61.7,55.1,30.17,SSE,158,0.6,2.3,79,0.00,CLR,,0.00,WeatherDisplay:10.37,2013-08-21 01:58:00,
2013-08-20 22:03:00,61.5,54.9,30.17,SSE,158,2.1,2.1,79,0.00,CLR,,0.00,WeatherDisplay:10.37,2013-08-21 02:03:00,
2013-08-20 22:08:00,61.3,54.8,30.17,SSE,158,0.6,2.3,79,0.00,CLR,,0.00,WeatherDisplay:10.37,2013-08-21 02:08:00,
2013-08-20 22:13:00,61.2,54.6,30.17,SSE,158,1.5,1.5,79,0.00,CLR,,0.00,WeatherDisplay:10.37,2013-08-21 02:13:00,
2013-08-20 22:18:00,60.8,54.2,30.18,SSE,158,0.6,1.1,79,0.00,CLR,,0.00,WeatherDisplay:10.37,2013-08-21 02:18:00,
2013-08-20 22:23:00,60.4,53.9,30.17,SSE,158,0.6,0.6,79,0.00,CLR,,0.00,WeatherDisplay:10.37,2013-08-21 02:23:00,
2013-08-20 22:28:00,60.3,54.1,30.17,SSE,158,0.6,1.1,80,0.00,CLR,,0.00,WeatherDisplay:10.37,2013-08-21 02:28:00,
2013-08-20 22:33:00,60.1,53.9,30.17,SSE,158,0.9,1.1,80,0.00,CLR,,0.00,WeatherDisplay:10.37,2013-08-21 02:33:00,
2013-08-20 22:38:00,60.1,53.9,30.17,SSE,158,1.8,2.3,80,0.00,CLR,,0.00,WeatherDisplay:10.37,2013-08-21 02:38:00,
2013-08-20 22:43:00,60.1,53.9,30.17,SSE,158,1.2,2.3,80,0.00,CLR,,0.00,WeatherDisplay:10.37,2013-08-21 02:43:00,
2013-08-20 22:48:00,59.9,53.7,30.17,SSE,158,1.8,2.3,80,0.00,CLR,,0.00,WeatherDisplay:10.37,2013-08-21 02:48:00,
2013-08-20 22:53:00,59.9,54.1,30.17,SSE,158,1.8,2.3,81,0.00,CLR,,0.00,WeatherDisplay:10.37,2013-08-21 02:53:00,
2013-08-20 22:58:00,59.7,53.9,30.17,South,180,2.5,2.5,81,0.00,CLR,,0.00,WeatherDisplay:10.37,2013-08-21 02:58:00,
2013-08-20 23:03:00,59.4,53.5,30.17,SSE,158,0.6,1.1,81,0.00,CLR,,0.00,WeatherDisplay:10.37,2013-08-21 03:03:00,
2013-08-20 23:08:00,59.2,53.4,30.17,South,180,0.9,1.1,81,0.00,CLR,,0.00,WeatherDisplay:10.37,2013-08-21 03:08:00,
2013-08-20 23:14:00,59.2,53.4,30.17,SSE,158,0.6,2.3,81,0.00,CLR,,0.00,WeatherDisplay:10.37,2013-08-21 03:14:00,
2013-08-20 23:19:00,59.0,53.5,30.17,SSE,158,0.9,1.1,82,0.00,CLR,,0.00,WeatherDisplay:10.37,2013-08-21 03:19:00,
2013-08-20 23:24:00,59.0,53.5,30.17,SSE,158,0.6,1.1,82,0.00,CLR,,0.00,WeatherDisplay:10.37,2013-08-21 03:24:00,
2013-08-20 23:29:00,58.6,53.2,30.18,South,180,1.5,1.5,82,0.00,CLR,,0.00,WeatherDisplay:10.37,2013-08-21 03:29:00,
2013-08-20 23:34:00,58.6,53.2,30.18,South,180,2.1,2.3,82,0.00,CLR,,0.00,WeatherDisplay:10.37,2013-08-21 03:34:00,
2013-08-20 23:39:00,58.6,53.5,30.18,SSE,158,1.5,1.5,83,0.00,CLR,,0.00,WeatherDisplay:10.37,2013-08-21 03:39:00,
2013-08-20 23:44:00,58.5,53.3,30.17,SSE,158,1.8,1.8,83,0.00,CLR,,0.00,WeatherDisplay:10.37,2013-08-21 03:44:00,
2013-08-20 23:49:00,58.5,53.3,30.18,SSE,158,2.4,2.4,83,0.00,CLR,,0.00,WeatherDisplay:10.37,2013-08-21 03:49:00,
2013-08-20 23:54:00,58.3,53.1,30.18,SSE,158,1.8,2.3,83,0.00,CLR,,0.00,WeatherDisplay:10.37,2013-08-21 03:54:00,
2013-08-20 23:59:00,58.3,53.1,30.17,SSE,158,2.1,2.3,83,0.00,CLR,,0.00,WeatherDisplay:10.37,2013-08-21 03:59:00,